PWSweather.com
Personal Weather Stations
Station Observations
KB2SBX
Sugarloaf, Sugarloaf, PA 18249

SugarloafSugarloaf, PA 18249

Lat: 41.0126685, Lon: -76.1082041

Elevation: 1030

Station Type: WS-2080

http://sugarloafpaweather.webng.com/weather.shtml

Latest ConditionsUpdated 9:30:05 AM EDT Saturday, Nov 1, 2014
Currently Today's Max Today's Min Today's Average
Temperature 41.9°F5.5°C 44.9°F7.2°C 41.9°F5.5°C 43.5°F6.4°C
Dew Point 40.3°F4.6°C 40.9°F4.9°C 36.6°F2.6°C 39.1°F3.9°C
Winds 2.0 mph ENE3.2 kmh ENE 4.0 mph NNE6.4 kmh NNE - 1.1 mph 1.8 kmh
Wind Gusts 3.0 mph4.8 kmh 9.0 mph14.5 kmh - -
Humidity 94% 95% 73% 85%
Pressure 29.90 in1012.5 mb 29.91 in1012.9 mb 29.84 in1010.5 mb -
Precipitation - 0.02 in0.5 mm - -
Hour Temp Dew Point Humidity Winds Wind Gusts Pressure Precip Precip Rate Daily Precip Total
09:30 AM 41.9°F5.5°C 40.3°F4.6°C 94% 2.0 mph ENE3.2 kmh ENE 3.0 mph4.8 kmh 29.90 in1012.5 mb 0.01 in0.3 mm 0.00 in/hr0.0 mm/hr 0.02 in0.5 mm
09:25 AM 41.9°F5.5°C 40.3°F4.6°C 94% 3.0 mph NNE4.8 kmh NNE 5.0 mph8.0 kmh 29.90 in1012.5 mb 0.01 in0.3 mm 0.00 in/hr0.0 mm/hr 0.02 in0.5 mm
09:20 AM 41.9°F5.5°C 40.0°F4.4°C 93% 2.0 mph NNW3.2 kmh NNW 4.0 mph6.4 kmh 29.90 in1012.5 mb 0.01 in0.3 mm 0.00 in/hr0.0 mm/hr 0.02 in0.5 mm
09:15 AM 41.9°F5.5°C 40.0°F4.4°C 93% 2.0 mph SSW3.2 kmh SSW 8.0 mph12.9 kmh 29.90 in1012.5 mb 0.01 in0.3 mm 0.00 in/hr0.0 mm/hr 0.02 in0.5 mm
09:10 AM 42.0°F5.6°C 39.9°F4.4°C 92% 2.0 mph NNW3.2 kmh NNW 4.0 mph6.4 kmh 29.90 in1012.5 mb 0.01 in0.3 mm 0.00 in/hr0.0 mm/hr 0.02 in0.5 mm
09:05 AM 42.2°F5.7°C 40.1°F4.5°C 92% 2.0 mph NNW3.2 kmh NNW 4.0 mph6.4 kmh 29.90 in1012.5 mb 0.01 in0.3 mm 0.12 in/hr3.0 mm/hr 0.02 in0.5 mm
09:00 AM 42.4°F5.8°C 40.0°F4.4°C 91% 3.0 mph NNW4.8 kmh NNW 9.0 mph14.5 kmh 29.90 in1012.5 mb 0.00 in0.0 mm 0.00 in/hr0.0 mm/hr 0.01 in0.3 mm
08:55 AM 42.6°F5.9°C 39.8°F4.3°C 90% 3.0 mph WNW4.8 kmh WNW 5.0 mph8.0 kmh 29.90 in1012.5 mb 0.00 in0.0 mm 0.00 in/hr0.0 mm/hr 0.01 in0.3 mm
08:50 AM 42.8°F6.0°C 39.7°F4.3°C 89% 2.0 mph NNW3.2 kmh NNW 3.0 mph4.8 kmh 29.91 in1012.9 mb 0.00 in0.0 mm 0.00 in/hr0.0 mm/hr 0.01 in0.3 mm
08:45 AM 42.8°F6.0°C 39.7°F4.3°C 89% 2.0 mph NNE3.2 kmh NNE 4.0 mph6.4 kmh 29.91 in1012.9 mb 0.00 in0.0 mm 0.00 in/hr0.0 mm/hr 0.01 in0.3 mm
08:40 AM 42.9°F6.1°C 39.6°F4.2°C 88% 2.0 mph NNW3.2 kmh NNW 6.0 mph9.7 kmh 29.91 in1012.9 mb 0.00 in0.0 mm 0.00 in/hr0.0 mm/hr 0.01 in0.3 mm
08:35 AM 43.1°F6.2°C 39.5°F4.2°C 87% Calm Calm 6.0 mph9.7 kmh 29.90 in1012.5 mb 0.00 in0.0 mm 0.00 in/hr0.0 mm/hr 0.01 in0.3 mm
08:30 AM 43.3°F6.3°C 39.7°F4.3°C 87% Calm Calm 5.0 mph8.0 kmh 29.90 in1012.5 mb 0.00 in0.0 mm 0.00 in/hr0.0 mm/hr 0.01 in0.3 mm
08:25 AM 43.5°F6.4°C 39.6°F4.2°C 86% 2.0 mph SSE3.2 kmh SSE 9.0 mph14.5 kmh 29.89 in1012.2 mb 0.00 in0.0 mm 0.00 in/hr0.0 mm/hr 0.01 in0.3 mm
08:20 AM 43.7°F6.5°C 39.4°F4.1°C 85% 2.0 mph NNW3.2 kmh NNW 7.0 mph11.3 kmh 29.89 in1012.2 mb 0.00 in0.0 mm 0.00 in/hr0.0 mm/hr 0.01 in0.3 mm
08:15 AM 43.8°F6.6°C 39.3°F4.1°C 84% Calm Calm 2.0 mph3.2 kmh 29.89 in1012.2 mb 0.00 in0.0 mm 0.00 in/hr0.0 mm/hr 0.01 in0.3 mm
08:10 AM 43.8°F6.6°C 39.3°F4.1°C 84% 3.0 mph NNW4.8 kmh NNW 5.0 mph8.0 kmh 29.89 in1012.2 mb 0.00 in0.0 mm 0.00 in/hr0.0 mm/hr 0.01 in0.3 mm
08:05 AM 43.8°F6.6°C 39.0°F3.9°C 83% 1.0 mph ENE1.6 kmh ENE 3.0 mph4.8 kmh 29.89 in1012.2 mb 0.00 in0.0 mm 0.00 in/hr0.0 mm/hr 0.01 in0.3 mm
08:00 AM 43.8°F6.6°C 39.0°F3.9°C 83% 1.0 mph ENE1.6 kmh ENE 4.0 mph6.4 kmh 29.89 in1012.2 mb 0.00 in0.0 mm 0.00 in/hr0.0 mm/hr 0.01 in0.3 mm
07:55 AM 43.8°F6.6°C 39.0°F3.9°C 83% 1.0 mph ESE1.6 kmh ESE 4.0 mph6.4 kmh 29.88 in1011.9 mb 0.00 in0.0 mm 0.00 in/hr0.0 mm/hr 0.01 in0.3 mm
07:50 AM 43.8°F6.6°C 39.0°F3.9°C 83% 1.0 mph SSE1.6 kmh SSE 4.0 mph6.4 kmh 29.88 in1011.9 mb 0.00 in0.0 mm 0.00 in/hr0.0 mm/hr 0.01 in0.3 mm
07:45 AM 43.8°F6.6°C 39.0°F3.9°C 83% 1.0 mph NNW1.6 kmh NNW 4.0 mph6.4 kmh 29.88 in1011.9 mb 0.00 in0.0 mm 0.00 in/hr0.0 mm/hr 0.01 in0.3 mm
07:40 AM 43.8°F6.6°C 39.3°F4.1°C 84% 1.0 mph NNE1.6 kmh NNE 6.0 mph9.7 kmh 29.88 in1011.9 mb 0.00 in0.0 mm 0.00 in/hr0.0 mm/hr 0.01 in0.3 mm
07:35 AM 43.8°F6.6°C 39.3°F4.1°C 84% 4.0 mph NNE6.4 kmh NNE 6.0 mph9.7 kmh 29.88 in1011.9 mb 0.00 in0.0 mm 0.00 in/hr0.0 mm/hr 0.01 in0.3 mm
07:30 AM 43.8°F6.6°C 39.3°F4.1°C 84% 2.0 mph WSW3.2 kmh WSW 4.0 mph6.4 kmh 29.87 in1011.5 mb 0.00 in0.0 mm 0.00 in/hr0.0 mm/hr 0.01 in0.3 mm
07:25 AM 43.8°F6.6°C 39.3°F4.1°C 84% 2.0 mph NNE3.2 kmh NNE 4.0 mph6.4 kmh 29.87 in1011.5 mb 0.00 in0.0 mm 0.00 in/hr0.0 mm/hr 0.01 in0.3 mm
07:20 AM 43.8°F6.6°C 39.6°F4.2°C 85% 2.0 mph NNW3.2 kmh NNW 7.0 mph11.3 kmh 29.87 in1011.5 mb 0.00 in0.0 mm 0.00 in/hr0.0 mm/hr 0.01 in0.3 mm
07:15 AM 43.8°F6.6°C 39.6°F4.2°C 85% 2.0 mph NNW3.2 kmh NNW 4.0 mph6.4 kmh 29.87 in1011.5 mb 0.00 in0.0 mm 0.00 in/hr0.0 mm/hr 0.01 in0.3 mm
07:10 AM 43.8°F6.6°C 39.6°F4.2°C 85% 1.0 mph WNW1.6 kmh WNW 4.0 mph6.4 kmh 29.87 in1011.5 mb 0.00 in0.0 mm 0.00 in/hr0.0 mm/hr 0.01 in0.3 mm
07:05 AM 43.8°F6.6°C 39.9°F4.4°C 86% 4.0 mph NNW6.4 kmh NNW 7.0 mph11.3 kmh 29.87 in1011.5 mb 0.00 in0.0 mm 0.00 in/hr0.0 mm/hr 0.01 in0.3 mm
07:00 AM 43.8°F6.6°C 39.9°F4.4°C 86% Calm Calm 6.0 mph9.7 kmh 29.87 in1011.5 mb 0.00 in0.0 mm 0.00 in/hr0.0 mm/hr 0.01 in0.3 mm
06:55 AM 43.8°F6.6°C 40.2°F4.6°C 87% 4.0 mph ENE6.4 kmh ENE 7.0 mph11.3 kmh 29.86 in1011.2 mb 0.00 in0.0 mm 0.00 in/hr0.0 mm/hr 0.01 in0.3 mm
06:50 AM 43.8°F6.6°C 40.5°F4.7°C 88% 2.0 mph NNE3.2 kmh NNE 4.0 mph6.4 kmh 29.87 in1011.5 mb 0.00 in0.0 mm 0.00 in/hr0.0 mm/hr 0.01 in0.3 mm
06:45 AM 43.8°F6.6°C 40.5°F4.7°C 88% 1.0 mph WNW1.6 kmh WNW 2.0 mph3.2 kmh 29.86 in1011.2 mb 0.00 in0.0 mm 0.00 in/hr0.0 mm/hr 0.01 in0.3 mm
06:40 AM 43.8°F6.6°C 40.5°F4.7°C 88% 1.0 mph WNW1.6 kmh WNW 2.0 mph3.2 kmh 29.87 in1011.5 mb 0.01 in0.3 mm 0.00 in/hr0.0 mm/hr 0.01 in0.3 mm
06:35 AM 43.8°F6.6°C 40.8°F4.9°C 89% 2.0 mph NNW3.2 kmh NNW 4.0 mph6.4 kmh 29.86 in1011.2 mb 0.01 in0.3 mm 0.00 in/hr0.0 mm/hr 0.01 in0.3 mm
06:30 AM 43.8°F6.6°C 40.8°F4.9°C 89% Calm Calm 5.0 mph8.0 kmh 29.86 in1011.2 mb 0.01 in0.3 mm 0.00 in/hr0.0 mm/hr 0.01 in0.3 mm
06:25 AM 43.7°F6.5°C 40.6°F4.8°C 89% 2.0 mph WNW3.2 kmh WNW 3.0 mph4.8 kmh 29.86 in1011.2 mb 0.01 in0.3 mm 0.00 in/hr0.0 mm/hr 0.01 in0.3 mm
06:20 AM 43.7°F6.5°C 40.6°F4.8°C 89% 2.0 mph NNE3.2 kmh NNE 5.0 mph8.0 kmh 29.85 in1010.8 mb 0.01 in0.3 mm 0.00 in/hr0.0 mm/hr 0.01 in0.3 mm
06:15 AM 43.7°F6.5°C 40.9°F4.9°C 90% Calm Calm 4.0 mph6.4 kmh 29.86 in1011.2 mb 0.01 in0.3 mm 0.00 in/hr0.0 mm/hr 0.01 in0.3 mm
06:10 AM 43.7°F6.5°C 40.9°F4.9°C 90% 1.0 mph ESE1.6 kmh ESE 2.0 mph3.2 kmh 29.86 in1011.2 mb 0.01 in0.3 mm 0.00 in/hr0.0 mm/hr 0.01 in0.3 mm
06:05 AM 43.7°F6.5°C 40.9°F4.9°C 90% 1.0 mph ESE1.6 kmh ESE 2.0 mph3.2 kmh 29.85 in1010.8 mb 0.01 in0.3 mm 0.00 in/hr0.0 mm/hr 0.01 in0.3 mm
06:00 AM 43.7°F6.5°C 40.9°F4.9°C 90% 1.0 mph ESE1.6 kmh ESE 2.0 mph3.2 kmh 29.85 in1010.8 mb 0.01 in0.3 mm 0.00 in/hr0.0 mm/hr 0.01 in0.3 mm
05:55 AM 43.7°F6.5°C 40.9°F4.9°C 90% 1.0 mph WSW1.6 kmh WSW 2.0 mph3.2 kmh 29.85 in1010.8 mb 0.01 in0.3 mm 0.00 in/hr0.0 mm/hr 0.01 in0.3 mm
05:50 AM 43.5°F6.4°C 40.7°F4.8°C 90% 2.0 mph WSW3.2 kmh WSW 4.0 mph6.4 kmh 29.85 in1010.8 mb 0.01 in0.3 mm 0.00 in/hr0.0 mm/hr 0.01 in0.3 mm
05:45 AM 43.5°F6.4°C 40.7°F4.8°C 90% 2.0 mph WNW3.2 kmh WNW 3.0 mph4.8 kmh 29.85 in1010.8 mb 0.01 in0.3 mm 0.12 in/hr3.0 mm/hr 0.01 in0.3 mm
05:40 AM 43.5°F6.4°C 40.7°F4.8°C 90% 2.0 mph NNW3.2 kmh NNW 4.0 mph6.4 kmh 29.85 in1010.8 mb 0.00 in0.0 mm 0.00 in/hr0.0 mm/hr 0.00 in0.0 mm
05:35 AM 43.5°F6.4°C 40.7°F4.8°C 90% 1.0 mph NNE1.6 kmh NNE 2.0 mph3.2 kmh 29.84 in1010.5 mb 0.00 in0.0 mm 0.00 in/hr0.0 mm/hr 0.00 in0.0 mm
05:30 AM 43.3°F6.3°C 40.6°F4.8°C 90% 1.0 mph NNE1.6 kmh NNE 2.0 mph3.2 kmh 29.84 in1010.5 mb 0.00 in0.0 mm 0.00 in/hr0.0 mm/hr 0.00 in0.0 mm
05:25 AM 43.3°F6.3°C 40.6°F4.8°C 90% Calm Calm 3.0 mph4.8 kmh 29.85 in1010.8 mb 0.00 in0.0 mm 0.00 in/hr0.0 mm/hr 0.00 in0.0 mm
05:20 AM 43.3°F6.3°C 40.6°F4.8°C 90% 1.0 mph NNW1.6 kmh NNW 2.0 mph3.2 kmh 29.84 in1010.5 mb 0.00 in0.0 mm 0.00 in/hr0.0 mm/hr 0.00 in0.0 mm
05:15 AM 43.3°F6.3°C 40.6°F4.8°C 90% 1.0 mph ENE1.6 kmh ENE 7.0 mph11.3 kmh 29.84 in1010.5 mb 0.00 in0.0 mm 0.00 in/hr0.0 mm/hr 0.00 in0.0 mm
05:10 AM 43.3°F6.3°C 40.8°F4.9°C 91% 2.0 mph ESE3.2 kmh ESE 7.0 mph11.3 kmh 29.84 in1010.5 mb 0.00 in0.0 mm 0.00 in/hr0.0 mm/hr 0.00 in0.0 mm
05:05 AM 43.1°F6.2°C 40.7°F4.8°C 91% 2.0 mph NNW3.2 kmh NNW 5.0 mph8.0 kmh 29.84 in1010.5 mb 0.00 in0.0 mm 0.00 in/hr0.0 mm/hr 0.00 in0.0 mm
05:00 AM 43.1°F6.2°C 40.9°F4.9°C 92% 2.0 mph NNE3.2 kmh NNE 4.0 mph6.4 kmh 29.84 in1010.5 mb 0.00 in0.0 mm 0.00 in/hr0.0 mm/hr 0.00 in0.0 mm
04:55 AM 42.9°F6.1°C 40.8°F4.9°C 92% 4.0 mph WNW6.4 kmh WNW 5.0 mph8.0 kmh 29.84 in1010.5 mb 0.00 in0.0 mm 0.00 in/hr0.0 mm/hr 0.00 in0.0 mm
04:50 AM 42.8°F6.0°C 40.9°F4.9°C 93% 1.0 mph NNE1.6 kmh NNE 8.0 mph12.9 kmh 29.84 in1010.5 mb 0.00 in0.0 mm 0.00 in/hr0.0 mm/hr 0.00 in0.0 mm
04:45 AM 42.8°F6.0°C 40.9°F4.9°C 93% 1.0 mph NNW1.6 kmh NNW 5.0 mph8.0 kmh 29.84 in1010.5 mb 0.00 in0.0 mm 0.00 in/hr0.0 mm/hr 0.00 in0.0 mm
04:40 AM 42.4°F5.8°C 40.8°F4.9°C 94% 1.0 mph NNE1.6 kmh NNE 4.0 mph6.4 kmh 29.84 in1010.5 mb 0.00 in0.0 mm 0.00 in/hr0.0 mm/hr 0.00 in0.0 mm
04:35 AM 42.2°F5.7°C 40.9°F4.9°C 95% 1.0 mph WNW1.6 kmh WNW 3.0 mph4.8 kmh 29.84 in1010.5 mb 0.00 in0.0 mm 0.00 in/hr0.0 mm/hr 0.00 in0.0 mm
04:30 AM 42.2°F5.7°C 40.6°F4.8°C 94% 2.0 mph NNE3.2 kmh NNE 2.0 mph3.2 kmh 29.84 in1010.5 mb 0.00 in0.0 mm 0.00 in/hr0.0 mm/hr 0.00 in0.0 mm
04:25 AM 42.2°F5.7°C 40.6°F4.8°C 94% 1.0 mph WNW1.6 kmh WNW 4.0 mph6.4 kmh 29.84 in1010.5 mb 0.00 in0.0 mm 0.00 in/hr0.0 mm/hr 0.00 in0.0 mm
04:20 AM 42.0°F5.6°C 40.2°F4.6°C 93% Calm Calm 2.0 mph3.2 kmh 29.84 in1010.5 mb 0.00 in0.0 mm 0.00 in/hr0.0 mm/hr 0.00 in0.0 mm
04:15 AM 42.0°F5.6°C 40.2°F4.6°C 93% Calm Calm 1.0 mph1.6 kmh 29.85 in1010.8 mb 0.00 in0.0 mm 0.00 in/hr0.0 mm/hr 0.00 in0.0 mm
04:10 AM 42.0°F5.6°C 40.2°F4.6°C 93% Calm Calm 2.0 mph3.2 kmh 29.85 in1010.8 mb 0.00 in0.0 mm 0.00 in/hr0.0 mm/hr 0.00 in0.0 mm
04:05 AM 42.0°F5.6°C 39.6°F4.2°C 91% Calm Calm -- 29.85 in1010.8 mb 0.00 in0.0 mm 0.00 in/hr0.0 mm/hr 0.00 in0.0 mm
04:00 AM 42.0°F5.6°C 39.6°F4.2°C 91% Calm Calm 2.0 mph3.2 kmh 29.85 in1010.8 mb 0.00 in0.0 mm 0.00 in/hr0.0 mm/hr 0.00 in0.0 mm
03:55 AM 42.0°F5.6°C 39.6°F4.2°C 91% Calm Calm 2.0 mph3.2 kmh 29.85 in1010.8 mb 0.00 in0.0 mm 0.00 in/hr0.0 mm/hr 0.00 in0.0 mm
03:50 AM 42.0°F5.6°C 39.6°F4.2°C 91% 1.0 mph SSE1.6 kmh SSE 2.0 mph3.2 kmh 29.84 in1010.5 mb 0.00 in0.0 mm 0.00 in/hr0.0 mm/hr 0.00 in0.0 mm
03:45 AM 42.2°F5.7°C 39.8°F4.3°C 91% 2.0 mph SSW3.2 kmh SSW 2.0 mph3.2 kmh 29.85 in1010.8 mb 0.00 in0.0 mm 0.00 in/hr0.0 mm/hr 0.00 in0.0 mm
03:40 AM 42.4°F5.8°C 40.0°F4.4°C 91% Calm Calm 2.0 mph3.2 kmh 29.84 in1010.5 mb 0.00 in0.0 mm 0.00 in/hr0.0 mm/hr 0.00 in0.0 mm
03:35 AM 42.6°F5.9°C 39.8°F4.3°C 90% 1.0 mph SSW1.6 kmh SSW 2.0 mph3.2 kmh 29.84 in1010.5 mb 0.00 in0.0 mm 0.00 in/hr0.0 mm/hr 0.00 in0.0 mm
03:30 AM 42.6°F5.9°C 39.8°F4.3°C 90% Calm Calm 2.0 mph3.2 kmh 29.85 in1010.8 mb 0.00 in0.0 mm 0.00 in/hr0.0 mm/hr 0.00 in0.0 mm
03:25 AM 42.8°F6.0°C 39.4°F4.1°C 88% 1.0 mph SW1.6 kmh SW 2.0 mph3.2 kmh 29.86 in1011.2 mb 0.00 in0.0 mm 0.00 in/hr0.0 mm/hr 0.00 in0.0 mm
03:20 AM 42.8°F6.0°C 38.9°F3.8°C 86% Calm Calm 1.0 mph1.6 kmh 29.86 in1011.2 mb 0.00 in0.0 mm 0.00 in/hr0.0 mm/hr 0.00 in0.0 mm
03:15 AM 42.8°F6.0°C 38.9°F3.8°C 86% Calm Calm 2.0 mph3.2 kmh 29.86 in1011.2 mb 0.00 in0.0 mm 0.00 in/hr0.0 mm/hr 0.00 in0.0 mm
03:10 AM 42.9°F6.1°C 38.7°F3.7°C 85% 1.0 mph ENE1.6 kmh ENE 2.0 mph3.2 kmh 29.86 in1011.2 mb 0.00 in0.0 mm 0.00 in/hr0.0 mm/hr 0.00 in0.0 mm
03:05 AM 43.1°F6.2°C 38.6°F3.7°C 84% Calm Calm 1.0 mph1.6 kmh 29.86 in1011.2 mb 0.00 in0.0 mm 0.00 in/hr0.0 mm/hr 0.00 in0.0 mm
03:00 AM 43.3°F6.3°C 38.5°F3.6°C 83% Calm Calm 2.0 mph3.2 kmh 29.86 in1011.2 mb 0.00 in0.0 mm 0.00 in/hr0.0 mm/hr 0.00 in0.0 mm
02:55 AM 43.5°F6.4°C 38.3°F3.5°C 82% Calm Calm 2.0 mph3.2 kmh 29.86 in1011.2 mb 0.00 in0.0 mm 0.00 in/hr0.0 mm/hr 0.00 in0.0 mm
02:50 AM 43.7°F6.5°C 38.2°F3.4°C 81% Calm Calm 2.0 mph3.2 kmh 29.86 in1011.2 mb 0.00 in0.0 mm 0.00 in/hr0.0 mm/hr 0.00 in0.0 mm
02:45 AM 44.0°F6.7°C 38.2°F3.4°C 80% Calm Calm 1.0 mph1.6 kmh 29.86 in1011.2 mb 0.00 in0.0 mm 0.00 in/hr0.0 mm/hr 0.00 in0.0 mm
02:40 AM 44.2°F6.8°C 38.1°F3.4°C 79% Calm Calm 1.0 mph1.6 kmh 29.86 in1011.2 mb 0.00 in0.0 mm 0.00 in/hr0.0 mm/hr 0.00 in0.0 mm
02:35 AM 44.6°F7.0°C 38.1°F3.4°C 78% Calm Calm 2.0 mph3.2 kmh 29.86 in1011.2 mb 0.00 in0.0 mm 0.00 in/hr0.0 mm/hr 0.00 in0.0 mm
02:30 AM 44.7°F7.1°C 37.6°F3.1°C 76% Calm Calm 5.0 mph8.0 kmh 29.86 in1011.2 mb 0.00 in0.0 mm 0.00 in/hr0.0 mm/hr 0.00 in0.0 mm
02:25 AM 44.7°F7.1°C 37.3°F2.9°C 75% 3.0 mph NNE4.8 kmh NNE 4.0 mph6.4 kmh 29.86 in1011.2 mb 0.00 in0.0 mm 0.00 in/hr0.0 mm/hr 0.00 in0.0 mm
02:20 AM 44.9°F7.2°C 37.1°F2.8°C 74% 2.0 mph NNE3.2 kmh NNE 6.0 mph9.7 kmh 29.85 in1010.8 mb 0.00 in0.0 mm 0.00 in/hr0.0 mm/hr 0.00 in0.0 mm
02:15 AM 44.9°F7.2°C 36.8°F2.7°C 73% 2.0 mph NNE3.2 kmh NNE 3.0 mph4.8 kmh 29.86 in1011.2 mb 0.00 in0.0 mm 0.00 in/hr0.0 mm/hr 0.00 in0.0 mm
02:10 AM 44.9°F7.2°C 36.8°F2.7°C 73% 2.0 mph WNW3.2 kmh WNW 4.0 mph6.4 kmh 29.86 in1011.2 mb 0.00 in0.0 mm 0.00 in/hr0.0 mm/hr 0.00 in0.0 mm
02:05 AM 44.7°F7.1°C 37.0°F2.8°C 74% 1.0 mph NNE1.6 kmh NNE 2.0 mph3.2 kmh 29.86 in1011.2 mb 0.00 in0.0 mm 0.00 in/hr0.0 mm/hr 0.00 in0.0 mm
02:00 AM 44.7°F7.1°C 37.0°F2.8°C 74% 1.0 mph NNE1.6 kmh NNE 2.0 mph3.2 kmh 29.85 in1010.8 mb 0.00 in0.0 mm 0.00 in/hr0.0 mm/hr 0.00 in0.0 mm
01:55 AM 44.9°F7.2°C 37.1°F2.8°C 74% 1.0 mph WSW1.6 kmh WSW 3.0 mph4.8 kmh 29.86 in1011.2 mb 0.00 in0.0 mm 0.00 in/hr0.0 mm/hr 0.00 in0.0 mm
01:50 AM 44.9°F7.2°C 36.8°F2.7°C 73% Calm Calm 2.0 mph3.2 kmh 29.86 in1011.2 mb 0.00 in0.0 mm 0.00 in/hr0.0 mm/hr 0.00 in0.0 mm
01:45 AM 44.7°F7.1°C 36.6°F2.6°C 73% 1.0 mph WNW1.6 kmh WNW 2.0 mph3.2 kmh 29.86 in1011.2 mb 0.00 in0.0 mm 0.00 in/hr0.0 mm/hr 0.00 in0.0 mm
01:40 AM 44.7°F7.1°C 36.6°F2.6°C 73% Calm Calm 5.0 mph8.0 kmh 29.86 in1011.2 mb 0.00 in0.0 mm 0.00 in/hr0.0 mm/hr 0.00 in0.0 mm
01:35 AM 44.7°F7.1°C 36.6°F2.6°C 73% Calm Calm 1.0 mph1.6 kmh 29.86 in1011.2 mb 0.00 in0.0 mm 0.00 in/hr0.0 mm/hr 0.00 in0.0 mm
01:30 AM 44.7°F7.1°C 36.6°F2.6°C 73% Calm Calm 2.0 mph3.2 kmh 29.86 in1011.2 mb 0.00 in0.0 mm 0.00 in/hr0.0 mm/hr 0.00 in0.0 mm
01:25 AM 44.7°F7.1°C 36.6°F2.6°C 73% 2.0 mph NNE3.2 kmh NNE 4.0 mph6.4 kmh 29.86 in1011.2 mb 0.00 in0.0 mm 0.00 in/hr0.0 mm/hr 0.00 in0.0 mm
01:20 AM 44.7°F7.1°C 37.0°F2.8°C 74% Calm Calm 4.0 mph6.4 kmh 29.87 in1011.5 mb 0.00 in0.0 mm 0.00 in/hr0.0 mm/hr 0.00 in0.0 mm
01:15 AM 44.7°F7.1°C 36.6°F2.6°C 73% Calm Calm 2.0 mph3.2 kmh 29.87 in1011.5 mb 0.00 in0.0 mm 0.00 in/hr0.0 mm/hr 0.00 in0.0 mm
01:10 AM 44.7°F7.1°C 36.6°F2.6°C 73% 1.0 mph ENE1.6 kmh ENE 3.0 mph4.8 kmh 29.87 in1011.5 mb 0.00 in0.0 mm 0.00 in/hr0.0 mm/hr 0.00 in0.0 mm
01:05 AM 44.7°F7.1°C 36.6°F2.6°C 73% Calm Calm 2.0 mph3.2 kmh 29.87 in1011.5 mb 0.00 in0.0 mm 0.00 in/hr0.0 mm/hr 0.00 in0.0 mm
01:00 AM 44.6°F7.0°C 36.8°F2.7°C 74% Calm Calm 1.0 mph1.6 kmh 29.87 in1011.5 mb 0.00 in0.0 mm 0.00 in/hr0.0 mm/hr 0.00 in0.0 mm
12:55 AM 44.4°F6.9°C 36.9°F2.7°C 75% Calm Calm 2.0 mph3.2 kmh 29.87 in1011.5 mb 0.00 in0.0 mm 0.00 in/hr0.0 mm/hr 0.00 in0.0 mm
12:50 AM 44.2°F6.8°C 37.4°F3.0°C 77% 1.0 mph NNW1.6 kmh NNW 2.0 mph3.2 kmh 29.87 in1011.5 mb 0.00 in0.0 mm 0.00 in/hr0.0 mm/hr 0.00 in0.0 mm
12:45 AM 44.2°F6.8°C 37.4°F3.0°C 77% Calm Calm 2.0 mph3.2 kmh 29.87 in1011.5 mb 0.00 in0.0 mm 0.00 in/hr0.0 mm/hr 0.00 in0.0 mm
12:40 AM 44.2°F6.8°C 37.4°F3.0°C 77% Calm Calm 1.0 mph1.6 kmh 29.87 in1011.5 mb 0.00 in0.0 mm 0.00 in/hr0.0 mm/hr 0.00 in0.0 mm
12:35 AM 44.2°F6.8°C 37.4°F3.0°C 77% Calm Calm 2.0 mph3.2 kmh 29.87 in1011.5 mb 0.00 in0.0 mm 0.00 in/hr0.0 mm/hr 0.00 in0.0 mm
12:30 AM 44.0°F6.7°C 37.3°F2.9°C 77% Calm Calm 2.0 mph3.2 kmh 29.88 in1011.9 mb 0.00 in0.0 mm 0.00 in/hr0.0 mm/hr 0.00 in0.0 mm
12:25 AM 44.2°F6.8°C 38.1°F3.4°C 79% Calm Calm 2.0 mph3.2 kmh 29.87 in1011.5 mb 0.00 in0.0 mm 0.00 in/hr0.0 mm/hr 0.00 in0.0 mm
12:20 AM 44.2°F6.8°C 37.8°F3.2°C 78% Calm Calm 1.0 mph1.6 kmh 29.87 in1011.5 mb 0.00 in0.0 mm 0.00 in/hr0.0 mm/hr 0.00 in0.0 mm
12:15 AM 44.4°F6.9°C 37.9°F3.3°C 78% Calm Calm 2.0 mph3.2 kmh 29.88 in1011.9 mb 0.00 in0.0 mm 0.00 in/hr0.0 mm/hr 0.00 in0.0 mm
12:10 AM 44.6°F7.0°C 37.5°F3.1°C 76% Calm Calm 1.0 mph1.6 kmh 29.87 in1011.5 mb 0.00 in0.0 mm 0.00 in/hr0.0 mm/hr 0.00 in0.0 mm
12:05 AM 44.2°F6.8°C 37.1°F2.8°C 76% Calm Calm 1.0 mph1.6 kmh 29.87 in1011.5 mb 0.00 in0.0 mm 0.00 in/hr0.0 mm/hr 0.00 in0.0 mm
12:00 AM 44.2°F6.8°C 37.1°F2.8°C 76% Calm Calm 2.0 mph3.2 kmh 29.88 in1011.9 mb 0.00 in0.0 mm 0.00 in/hr0.0 mm/hr 0.00 in0.0 mm